sensor_id;sensor_type;location;lat;lon;timestamp;pressure;altitude;pressure_sealevel;temperature
24714;BMP280;12820;51.580;5.010;2022-07-09T00:00:41;102802.81;;;21.00
24714;BMP280;12820;51.580;5.010;2022-07-09T00:05:43;102799.69;;;20.90
24714;BMP280;12820;51.580;5.010;2022-07-09T00:10:45;102793.97;;;20.81
24714;BMP280;12820;51.580;5.010;2022-07-09T00:15:48;102789.09;;;20.72
24714;BMP280;12820;51.580;5.010;2022-07-09T00:20:50;102791.06;;;20.61
24714;BMP280;12820;51.580;5.010;2022-07-09T00:25:52;102792.13;;;20.53
24714;BMP280;12820;51.580;5.010;2022-07-09T00:30:54;102786.41;;;20.44
24714;BMP280;12820;51.580;5.010;2022-07-09T00:35:57;102800.19;;;20.37
24714;BMP280;12820;51.580;5.010;2022-07-09T00:40:59;102793.47;;;20.31
24714;BMP280;12820;51.580;5.010;2022-07-09T00:46:01;102785.13;;;20.24
24714;BMP280;12820;51.580;5.010;2022-07-09T00:51:04;102787.84;;;20.16
24714;BMP280;12820;51.580;5.010;2022-07-09T00:56:06;102788.03;;;20.09
24714;BMP280;12820;51.580;5.010;2022-07-09T01:01:09;102788.16;;;20.03
24714;BMP280;12820;51.580;5.010;2022-07-09T01:06:11;102779.75;;;19.98
24714;BMP280;12820;51.580;5.010;2022-07-09T01:11:14;102769.72;;;19.91
24714;BMP280;12820;51.580;5.010;2022-07-09T01:16:16;102771.50;;;19.88
24714;BMP280;12820;51.580;5.010;2022-07-09T01:21:18;102767.38;;;19.82
24714;BMP280;12820;51.580;5.010;2022-07-09T01:26:23;102758.13;;;19.77
24714;BMP280;12820;51.580;5.010;2022-07-09T01:31:25;102761.69;;;19.70
24714;BMP280;12820;51.580;5.010;2022-07-09T01:36:27;102751.59;;;19.64
24714;BMP280;12820;51.580;5.010;2022-07-09T01:41:29;102747.44;;;19.59
24714;BMP280;12820;51.580;5.010;2022-07-09T01:46:32;102749.25;;;19.54
24714;BMP280;12820;51.580;5.010;2022-07-09T01:51:35;102749.38;;;19.48
24714;BMP280;12820;51.580;5.010;2022-07-09T01:56:37;102748.66;;;19.42
24714;BMP280;12820;51.580;5.010;2022-07-09T02:01:39;102754.72;;;19.35
24714;BMP280;12820;51.580;5.010;2022-07-09T02:06:41;102747.22;;;19.29
24714;BMP280;12820;51.580;5.010;2022-07-09T02:11:43;102741.38;;;19.23
24714;BMP280;12820;51.580;5.010;2022-07-09T02:16:46;102734.69;;;19.18
24714;BMP280;12820;51.580;5.010;2022-07-09T02:21:48;102737.34;;;19.12
24714;BMP280;12820;51.580;5.010;2022-07-09T02:26:50;102736.56;;;19.08
24714;BMP280;12820;51.580;5.010;2022-07-09T02:31:52;102751.09;;;19.05
24714;BMP280;12820;51.580;5.010;2022-07-09T02:36:56;102740.16;;;18.99
24714;BMP280;12820;51.580;5.010;2022-07-09T02:41:59;102741.09;;;18.95
24714;BMP280;12820;51.580;5.010;2022-07-09T02:47:01;102731.84;;;18.89
24714;BMP280;12820;51.580;5.010;2022-07-09T02:52:03;102737.00;;;18.86
24714;BMP280;12820;51.580;5.010;2022-07-09T02:57:06;102726.00;;;18.85
24714;BMP280;12820;51.580;5.010;2022-07-09T03:02:09;102720.97;;;18.82
24714;BMP280;12820;51.580;5.010;2022-07-09T03:07:12;102725.22;;;18.81
24714;BMP280;12820;51.580;5.010;2022-07-09T03:12:16;102715.88;;;18.82
24714;BMP280;12820;51.580;5.010;2022-07-09T03:17:18;102720.97;;;18.80
24714;BMP280;12820;51.580;5.010;2022-07-09T03:22:20;102717.66;;;18.77
24714;BMP280;12820;51.580;5.010;2022-07-09T03:27:22;102723.63;;;18.74
24714;BMP280;12820;51.580;5.010;2022-07-09T03:32:25;102729.63;;;18.73
24714;BMP280;12820;51.580;5.010;2022-07-09T03:37:27;102731.31;;;18.73
24714;BMP280;12820;51.580;5.010;2022-07-09T03:42:29;102716.91;;;18.70
24714;BMP280;12820;51.580;5.010;2022-07-09T03:47:31;102717.78;;;18.68
24714;BMP280;12820;51.580;5.010;2022-07-09T03:52:33;102724.59;;;18.66
24714;BMP280;12820;51.580;5.010;2022-07-09T03:57:35;102716.13;;;18.64
24714;BMP280;12820;51.580;5.010;2022-07-09T04:02:38;102711.94;;;18.63
24714;BMP280;12820;51.580;5.010;2022-07-09T04:07:40;102711.03;;;18.64
24714;BMP280;12820;51.580;5.010;2022-07-09T04:12:43;102705.91;;;18.67
24714;BMP280;12820;51.580;5.010;2022-07-09T04:17:46;102696.50;;;18.72
24714;BMP280;12820;51.580;5.010;2022-07-09T04:22:48;102706.63;;;18.76
24714;BMP280;12820;51.580;5.010;2022-07-09T04:27:50;102709.91;;;18.81
24714;BMP280;12820;51.580;5.010;2022-07-09T04:32:52;102703.88;;;18.86
24714;BMP280;12820;51.580;5.010;2022-07-09T04:37:54;102702.94;;;18.90
24714;BMP280;12820;51.580;5.010;2022-07-09T04:42:56;102705.41;;;18.95
24714;BMP280;12820;51.580;5.010;2022-07-09T04:47:58;102701.94;;;18.99
24714;BMP280;12820;51.580;5.010;2022-07-09T04:53:01;102702.75;;;19.01
24714;BMP280;12820;51.580;5.010;2022-07-09T04:58:03;102689.09;;;19.03
24714;BMP280;12820;51.580;5.010;2022-07-09T05:03:05;102682.25;;;19.06
24714;BMP280;12820;51.580;5.010;2022-07-09T05:08:07;102686.34;;;19.12
24714;BMP280;12820;51.580;5.010;2022-07-09T05:13:09;102680.28;;;19.19
24714;BMP280;12820;51.580;5.010;2022-07-09T05:18:11;102685.25;;;19.24
24714;BMP280;12820;51.580;5.010;2022-07-09T05:23:13;102683.41;;;19.31
24714;BMP280;12820;51.580;5.010;2022-07-09T05:28:15;102676.47;;;19.37
24714;BMP280;12820;51.580;5.010;2022-07-09T05:33:17;102673.72;;;19.46
24714;BMP280;12820;51.580;5.010;2022-07-09T05:38:21;102676.97;;;19.55
24714;BMP280;12820;51.580;5.010;2022-07-09T05:43:23;102667.44;;;19.63
24714;BMP280;12820;51.580;5.010;2022-07-09T05:48:25;102667.16;;;19.75
24714;BMP280;12820;51.580;5.010;2022-07-09T05:53:27;102664.38;;;19.85
24714;BMP280;12820;51.580;5.010;2022-07-09T05:58:29;102672.66;;;19.92
24714;BMP280;12820;51.580;5.010;2022-07-09T06:03:31;102667.38;;;20.01
24714;BMP280;12820;51.580;5.010;2022-07-09T06:08:33;102679.88;;;20.11
24714;BMP280;12820;51.580;5.010;2022-07-09T06:13:36;102694.91;;;20.23
24714;BMP280;12820;51.580;5.010;2022-07-09T06:18:39;102696.38;;;20.31
24714;BMP280;12820;51.580;5.010;2022-07-09T06:23:41;102706.47;;;20.39
24714;BMP280;12820;51.580;5.010;2022-07-09T06:28:43;102707.09;;;20.48
24714;BMP280;12820;51.580;5.010;2022-07-09T06:33:45;102703.53;;;20.53
24714;BMP280;12820;51.580;5.010;2022-07-09T06:38:48;102701.63;;;20.60
24714;BMP280;12820;51.580;5.010;2022-07-09T06:44:13;102714.25;;;20.67
24714;BMP280;12820;51.580;5.010;2022-07-09T06:49:15;102688.44;;;20.76
24714;BMP280;12820;51.580;5.010;2022-07-09T06:54:17;102704.47;;;20.82
24714;BMP280;12820;51.580;5.010;2022-07-09T06:59:19;102701.66;;;20.91
24714;BMP280;12820;51.580;5.010;2022-07-09T07:04:24;102694.44;;;21.04
24714;BMP280;12820;51.580;5.010;2022-07-09T07:09:27;102686.44;;;21.16
24714;BMP280;12820;51.580;5.010;2022-07-09T07:14:30;102690.41;;;21.27
24714;BMP280;12820;51.580;5.010;2022-07-09T07:19:32;102693.44;;;21.39
24714;BMP280;12820;51.580;5.010;2022-07-09T07:24:35;102685.13;;;21.60
24714;BMP280;12820;51.580;5.010;2022-07-09T07:29:37;102682.56;;;21.88
24714;BMP280;12820;51.580;5.010;2022-07-09T07:34:39;102685.22;;;22.10
24714;BMP280;12820;51.580;5.010;2022-07-09T07:39:41;102687.75;;;22.37
24714;BMP280;12820;51.580;5.010;2022-07-09T07:44:43;102694.59;;;22.62
24714;BMP280;12820;51.580;5.010;2022-07-09T07:49:45;102702.06;;;22.92
24714;BMP280;12820;51.580;5.010;2022-07-09T07:54:47;102697.72;;;23.16
24714;BMP280;12820;51.580;5.010;2022-07-09T07:59:49;102709.38;;;23.26
24714;BMP280;12820;51.580;5.010;2022-07-09T08:04:51;102700.41;;;23.37
24714;BMP280;12820;51.580;5.010;2022-07-09T08:09:54;102699.66;;;23.56
24714;BMP280;12820;51.580;5.010;2022-07-09T08:14:56;102677.50;;;23.74
24714;BMP280;12820;51.580;5.010;2022-07-09T08:19:58;102680.28;;;23.91
24714;BMP280;12820;51.580;5.010;2022-07-09T08:25:00;102673.22;;;24.17
24714;BMP280;12820;51.580;5.010;2022-07-09T08:30:03;102671.31;;;24.41
24714;BMP280;12820;51.580;5.010;2022-07-09T08:35:06;102666.41;;;24.56
24714;BMP280;12820;51.580;5.010;2022-07-09T08:40:08;102652.78;;;24.72
24714;BMP280;12820;51.580;5.010;2022-07-09T08:45:11;102656.44;;;24.86
24714;BMP280;12820;51.580;5.010;2022-07-09T08:50:17;102663.69;;;24.96
24714;BMP280;12820;51.580;5.010;2022-07-09T08:55:21;102664.47;;;24.98
24714;BMP280;12820;51.580;5.010;2022-07-09T09:00:24;102660.47;;;24.92
24714;BMP280;12820;51.580;5.010;2022-07-09T09:05:26;102665.38;;;24.97
24714;BMP280;12820;51.580;5.010;2022-07-09T09:10:28;102661.31;;;25.30
24714;BMP280;12820;51.580;5.010;2022-07-09T09:15:31;102660.53;;;25.64
24714;BMP280;12820;51.580;5.010;2022-07-09T09:20:33;102654.88;;;25.74
24714;BMP280;12820;51.580;5.010;2022-07-09T09:25:36;102657.56;;;25.71
24714;BMP280;12820;51.580;5.010;2022-07-09T09:30:42;102654.75;;;25.59
24714;BMP280;12820;51.580;5.010;2022-07-09T09:35:45;102660.97;;;25.55
24714;BMP280;12820;51.580;5.010;2022-07-09T09:40:47;102662.09;;;25.31
24714;BMP280;12820;51.580;5.010;2022-07-09T09:45:51;102673.47;;;25.08
24714;BMP280;12820;51.580;5.010;2022-07-09T09:51:00;102660.63;;;24.89
24714;BMP280;12820;51.580;5.010;2022-07-09T09:56:03;102679.91;;;24.98
24714;BMP280;12820;51.580;5.010;2022-07-09T10:01:05;102676.16;;;25.05
24714;BMP280;12820;51.580;5.010;2022-07-09T10:06:07;102678.03;;;25.02
24714;BMP280;12820;51.580;5.010;2022-07-09T10:11:09;102674.63;;;25.01
24714;BMP280;12820;51.580;5.010;2022-07-09T10:16:11;102678.22;;;25.35
24714;BMP280;12820;51.580;5.010;2022-07-09T10:21:14;102662.66;;;25.72
24714;BMP280;12820;51.580;5.010;2022-07-09T10:26:16;102658.97;;;26.12
24714;BMP280;12820;51.580;5.010;2022-07-09T10:31:20;102655.41;;;26.48
24714;BMP280;12820;51.580;5.010;2022-07-09T10:36:22;102644.81;;;27.77
24714;BMP280;12820;51.580;5.010;2022-07-09T10:41:24;102646.25;;;28.53
24714;BMP280;12820;51.580;5.010;2022-07-09T10:46:27;102650.91;;;28.62
24714;BMP280;12820;51.580;5.010;2022-07-09T10:51:30;102646.25;;;28.53
24714;BMP280;12820;51.580;5.010;2022-07-09T10:56:34;102647.97;;;28.82
24714;BMP280;12820;51.580;5.010;2022-07-09T11:01:36;102651.31;;;28.84
24714;BMP280;12820;51.580;5.010;2022-07-09T11:06:45;102653.63;;;28.88
24714;BMP280;12820;51.580;5.010;2022-07-09T11:11:48;102659.16;;;28.82
24714;BMP280;12820;51.580;5.010;2022-07-09T11:16:56;102665.06;;;28.28
24714;BMP280;12820;51.580;5.010;2022-07-09T11:22:01;102658.63;;;27.91
24714;BMP280;12820;51.580;5.010;2022-07-09T11:27:05;102667.47;;;27.87
24714;BMP280;12820;51.580;5.010;2022-07-09T11:32:16;102675.09;;;28.04
24714;BMP280;12820;51.580;5.010;2022-07-09T11:37:23;102664.00;;;27.88
24714;BMP280;12820;51.580;5.010;2022-07-09T11:42:26;102658.00;;;28.17
24714;BMP280;12820;51.580;5.010;2022-07-09T11:47:33;102656.44;;;27.99
24714;BMP280;12820;51.580;5.010;2022-07-09T11:52:37;102662.25;;;27.74
24714;BMP280;12820;51.580;5.010;2022-07-09T11:57:55;102678.91;;;27.53
24714;BMP280;12820;51.580;5.010;2022-07-09T12:03:00;102665.91;;;28.14
24714;BMP280;12820;51.580;5.010;2022-07-09T12:08:04;102665.63;;;28.33
24714;BMP280;12820;51.580;5.010;2022-07-09T12:13:07;102660.69;;;28.71
24714;BMP280;12820;51.580;5.010;2022-07-09T12:18:11;102652.22;;;28.96
24714;BMP280;12820;51.580;5.010;2022-07-09T12:23:13;102657.97;;;28.88
24714;BMP280;12820;51.580;5.010;2022-07-09T12:28:15;102646.66;;;28.75
24714;BMP280;12820;51.580;5.010;2022-07-09T12:33:17;102654.63;;;28.86
24714;BMP280;12820;51.580;5.010;2022-07-09T12:38:19;102641.13;;;28.81
24714;BMP280;12820;51.580;5.010;2022-07-09T12:43:21;102661.75;;;28.96
24714;BMP280;12820;51.580;5.010;2022-07-09T12:48:23;102643.50;;;28.70
24714;BMP280;12820;51.580;5.010;2022-07-09T12:53:25;102655.31;;;28.60
24714;BMP280;12820;51.580;5.010;2022-07-09T12:58:27;102645.69;;;28.35
24714;BMP280;12820;51.580;5.010;2022-07-09T13:03:30;102650.59;;;28.53
24714;BMP280;12820;51.580;5.010;2022-07-09T13:08:52;102661.19;;;28.21
24714;BMP280;12820;51.580;5.010;2022-07-09T13:13:54;102655.53;;;28.00
24714;BMP280;12820;51.580;5.010;2022-07-09T13:18:56;102672.03;;;28.13
24714;BMP280;12820;51.580;5.010;2022-07-09T13:23:59;102651.22;;;28.14
24714;BMP280;12820;51.580;5.010;2022-07-09T13:29:01;102653.88;;;28.28
24714;BMP280;12820;51.580;5.010;2022-07-09T13:34:03;102650.66;;;28.38
24714;BMP280;12820;51.580;5.010;2022-07-09T13:39:05;102652.72;;;28.47
24714;BMP280;12820;51.580;5.010;2022-07-09T13:44:07;102637.91;;;28.77
24714;BMP280;12820;51.580;5.010;2022-07-09T13:49:10;102637.81;;;28.92
24714;BMP280;12820;51.580;5.010;2022-07-09T13:54:12;102636.44;;;29.54
24714;BMP280;12820;51.580;5.010;2022-07-09T13:59:14;102632.06;;;30.06
24714;BMP280;12820;51.580;5.010;2022-07-09T14:04:16;102637.88;;;30.09
24714;BMP280;12820;51.580;5.010;2022-07-09T14:09:18;102626.88;;;30.18
24714;BMP280;12820;51.580;5.010;2022-07-09T14:14:22;102627.38;;;30.49
24714;BMP280;12820;51.580;5.010;2022-07-09T14:19:24;102632.34;;;30.64
24714;BMP280;12820;51.580;5.010;2022-07-09T14:24:26;102631.50;;;30.75
24714;BMP280;12820;51.580;5.010;2022-07-09T14:29:29;102625.78;;;30.46
24714;BMP280;12820;51.580;5.010;2022-07-09T14:34:31;102626.56;;;30.22
24714;BMP280;12820;51.580;5.010;2022-07-09T14:39:34;102627.94;;;30.15
24714;BMP280;12820;51.580;5.010;2022-07-09T14:44:36;102621.66;;;30.44
24714;BMP280;12820;51.580;5.010;2022-07-09T14:49:38;102621.53;;;30.69
24714;BMP280;12820;51.580;5.010;2022-07-09T14:54:40;102610.06;;;30.84
24714;BMP280;12820;51.580;5.010;2022-07-09T14:59:43;102606.75;;;31.06
24714;BMP280;12820;51.580;5.010;2022-07-09T15:04:45;102610.75;;;31.22
24714;BMP280;12820;51.580;5.010;2022-07-09T15:09:47;102590.25;;;31.30
24714;BMP280;12820;51.580;5.010;2022-07-09T15:14:49;102588.84;;;31.49
24714;BMP280;12820;51.580;5.010;2022-07-09T15:19:51;102585.03;;;31.76
24714;BMP280;12820;51.580;5.010;2022-07-09T15:24:53;102592.75;;;31.77
24714;BMP280;12820;51.580;5.010;2022-07-09T15:29:55;102580.22;;;31.49
24714;BMP280;12820;51.580;5.010;2022-07-09T15:34:57;102590.31;;;31.64
24714;BMP280;12820;51.580;5.010;2022-07-09T15:39:59;102577.03;;;31.56
24714;BMP280;12820;51.580;5.010;2022-07-09T15:45:02;102587.88;;;31.50
24714;BMP280;12820;51.580;5.010;2022-07-09T15:50:05;102588.69;;;30.93
24714;BMP280;12820;51.580;5.010;2022-07-09T15:55:09;102588.94;;;30.41
24714;BMP280;12820;51.580;5.010;2022-07-09T16:00:12;102594.69;;;29.96
24714;BMP280;12820;51.580;5.010;2022-07-09T16:05:14;102587.88;;;29.81
24714;BMP280;12820;51.580;5.010;2022-07-09T16:10:16;102588.84;;;29.55
24714;BMP280;12820;51.580;5.010;2022-07-09T16:15:23;102604.94;;;29.20
24714;BMP280;12820;51.580;5.010;2022-07-09T16:20:27;102589.69;;;29.02
24714;BMP280;12820;51.580;5.010;2022-07-09T16:25:29;102589.66;;;29.16
24714;BMP280;12820;51.580;5.010;2022-07-09T16:30:31;102581.41;;;29.23
24714;BMP280;12820;51.580;5.010;2022-07-09T16:35:33;102582.66;;;29.04
24714;BMP280;12820;51.580;5.010;2022-07-09T16:40:36;102578.44;;;28.76
24714;BMP280;12820;51.580;5.010;2022-07-09T16:45:40;102587.94;;;28.35
24714;BMP280;12820;51.580;5.010;2022-07-09T16:50:42;102591.91;;;27.98
24714;BMP280;12820;51.580;5.010;2022-07-09T16:55:45;102596.56;;;27.63
24714;BMP280;12820;51.580;5.010;2022-07-09T17:00:47;102608.56;;;27.33
24714;BMP280;12820;51.580;5.010;2022-07-09T17:05:49;102609.84;;;27.27
24714;BMP280;12820;51.580;5.010;2022-07-09T17:10:51;102605.00;;;27.36
24714;BMP280;12820;51.580;5.010;2022-07-09T17:15:53;102607.06;;;27.45
24714;BMP280;12820;51.580;5.010;2022-07-09T17:20:55;102611.13;;;27.33
24714;BMP280;12820;51.580;5.010;2022-07-09T17:25:58;102624.09;;;27.02
24714;BMP280;12820;51.580;5.010;2022-07-09T17:31:03;102632.47;;;26.75
24714;BMP280;12820;51.580;5.010;2022-07-09T17:36:05;102624.22;;;26.52
24714;BMP280;12820;51.580;5.010;2022-07-09T17:41:08;102629.69;;;26.30
24714;BMP280;12820;51.580;5.010;2022-07-09T17:46:10;102633.09;;;26.14
24714;BMP280;12820;51.580;5.010;2022-07-09T17:51:12;102646.53;;;26.03
24714;BMP280;12820;51.580;5.010;2022-07-09T17:56:14;102633.31;;;25.93
24714;BMP280;12820;51.580;5.010;2022-07-09T18:01:17;102640.94;;;25.78
24714;BMP280;12820;51.580;5.010;2022-07-09T18:06:19;102643.81;;;25.54
24714;BMP280;12820;51.580;5.010;2022-07-09T18:11:22;102647.75;;;25.26
24714;BMP280;12820;51.580;5.010;2022-07-09T18:16:24;102659.31;;;24.98
24714;BMP280;12820;51.580;5.010;2022-07-09T18:21:29;102665.66;;;24.72
24714;BMP280;12820;51.580;5.010;2022-07-09T18:26:32;102679.72;;;24.44
24714;BMP280;12820;51.580;5.010;2022-07-09T18:31:34;102675.53;;;24.23
24714;BMP280;12820;51.580;5.010;2022-07-09T18:36:36;102671.97;;;24.05
24714;BMP280;12820;51.580;5.010;2022-07-09T18:41:38;102677.69;;;23.91
24714;BMP280;12820;51.580;5.010;2022-07-09T18:46:44;102676.66;;;23.74
24714;BMP280;12820;51.580;5.010;2022-07-09T18:51:46;102676.25;;;23.63
24714;BMP280;12820;51.580;5.010;2022-07-09T18:56:48;102683.53;;;23.52
24714;BMP280;12820;51.580;5.010;2022-07-09T19:01:51;102696.94;;;23.38
24714;BMP280;12820;51.580;5.010;2022-07-09T19:06:54;102689.88;;;23.20
24714;BMP280;12820;51.580;5.010;2022-07-09T19:11:56;102703.19;;;23.07
24714;BMP280;12820;51.580;5.010;2022-07-09T19:16:58;102703.78;;;22.91
24714;BMP280;12820;51.580;5.010;2022-07-09T19:22:00;102694.16;;;22.74
24714;BMP280;12820;51.580;5.010;2022-07-09T19:27:02;102701.53;;;22.59
24714;BMP280;12820;51.580;5.010;2022-07-09T19:32:05;102701.31;;;22.39
24714;BMP280;12820;51.580;5.010;2022-07-09T19:37:26;102704.50;;;22.22
24714;BMP280;12820;51.580;5.010;2022-07-09T19:42:28;102710.25;;;22.03
24714;BMP280;12820;51.580;5.010;2022-07-09T19:47:38;102720.19;;;21.86
24714;BMP280;12820;51.580;5.010;2022-07-09T19:52:41;102730.84;;;21.72
24714;BMP280;12820;51.580;5.010;2022-07-09T19:57:43;102738.91;;;21.58
24714;BMP280;12820;51.580;5.010;2022-07-09T20:02:46;102743.66;;;21.43
24714;BMP280;12820;51.580;5.010;2022-07-09T20:07:48;102741.53;;;21.29
24714;BMP280;12820;51.580;5.010;2022-07-09T20:12:50;102753.03;;;21.15
24714;BMP280;12820;51.580;5.010;2022-07-09T20:17:53;102754.97;;;21.04
24714;BMP280;12820;51.580;5.010;2022-07-09T20:22:55;102758.75;;;20.91
24714;BMP280;12820;51.580;5.010;2022-07-09T20:27:59;102755.75;;;20.76
24714;BMP280;12820;51.580;5.010;2022-07-09T20:33:04;102762.06;;;20.62
24714;BMP280;12820;51.580;5.010;2022-07-09T20:38:06;102764.97;;;20.49
24714;BMP280;12820;51.580;5.010;2022-07-09T20:43:08;102763.59;;;20.35
24714;BMP280;12820;51.580;5.010;2022-07-09T20:48:10;102757.03;;;20.24
24714;BMP280;12820;51.580;5.010;2022-07-09T20:53:12;102776.00;;;20.14
24714;BMP280;12820;51.580;5.010;2022-07-09T20:58:14;102773.69;;;20.04
24714;BMP280;12820;51.580;5.010;2022-07-09T21:03:16;102771.31;;;19.96
24714;BMP280;12820;51.580;5.010;2022-07-09T21:08:18;102770.69;;;19.86
24714;BMP280;12820;51.580;5.010;2022-07-09T21:13:21;102770.00;;;19.78
24714;BMP280;12820;51.580;5.010;2022-07-09T21:18:23;102773.66;;;19.68
24714;BMP280;12820;51.580;5.010;2022-07-09T21:23:45;102768.72;;;19.59
24714;BMP280;12820;51.580;5.010;2022-07-09T21:28:47;102766.38;;;19.49
24714;BMP280;12820;51.580;5.010;2022-07-09T21:33:49;102764.81;;;19.41
24714;BMP280;12820;51.580;5.010;2022-07-09T21:38:51;102764.97;;;19.34
24714;BMP280;12820;51.580;5.010;2022-07-09T21:43:53;102773.66;;;19.25
24714;BMP280;12820;51.580;5.010;2022-07-09T21:48:55;102775.47;;;19.18
24714;BMP280;12820;51.580;5.010;2022-07-09T21:53:57;102774.78;;;19.11
24714;BMP280;12820;51.580;5.010;2022-07-09T21:58:59;102764.72;;;19.04
24714;BMP280;12820;51.580;5.010;2022-07-09T22:04:02;102756.38;;;18.96
24714;BMP280;12820;51.580;5.010;2022-07-09T22:09:04;102760.72;;;18.90
24714;BMP280;12820;51.580;5.010;2022-07-09T22:14:06;102768.53;;;18.83
24714;BMP280;12820;51.580;5.010;2022-07-09T22:19:08;102763.53;;;18.77
24714;BMP280;12820;51.580;5.010;2022-07-09T22:24:11;102757.69;;;18.69
24714;BMP280;12820;51.580;5.010;2022-07-09T22:29:13;102754.34;;;18.64
24714;BMP280;12820;51.580;5.010;2022-07-09T22:34:15;102760.44;;;18.57
24714;BMP280;12820;51.580;5.010;2022-07-09T22:39:17;102751.19;;;18.50
24714;BMP280;12820;51.580;5.010;2022-07-09T22:44:19;102736.88;;;18.44
24714;BMP280;12820;51.580;5.010;2022-07-09T22:49:21;102742.06;;;18.38
24714;BMP280;12820;51.580;5.010;2022-07-09T22:54:23;102741.31;;;18.33
24714;BMP280;12820;51.580;5.010;2022-07-09T22:59:25;102749.03;;;18.27
24714;BMP280;12820;51.580;5.010;2022-07-09T23:04:27;102755.03;;;18.23
24714;BMP280;12820;51.580;5.010;2022-07-09T23:09:29;102749.22;;;18.15
24714;BMP280;12820;51.580;5.010;2022-07-09T23:14:31;102750.16;;;18.10
24714;BMP280;12820;51.580;5.010;2022-07-09T23:19:33;102744.31;;;18.04
24714;BMP280;12820;51.580;5.010;2022-07-09T23:24:35;102742.69;;;18.00
24714;BMP280;12820;51.580;5.010;2022-07-09T23:29:38;102734.25;;;17.95
24714;BMP280;12820;51.580;5.010;2022-07-09T23:34:40;102728.38;;;17.92
24714;BMP280;12820;51.580;5.010;2022-07-09T23:39:42;102734.41;;;17.86
24714;BMP280;12820;51.580;5.010;2022-07-09T23:44:44;102737.84;;;17.82
24714;BMP280;12820;51.580;5.010;2022-07-09T23:49:46;102735.34;;;17.77
24714;BMP280;12820;51.580;5.010;2022-07-09T23:54:48;102740.50;;;17.71
24714;BMP280;12820;51.580;5.010;2022-07-09T23:59:50;102738.88;;;17.68
